Latest Weather Observations for Redesdale

IDV60801

Issued at 9:22 am EST Wednesday 24 July 2024 (issued every 10 minutes, with the page automatically refreshed every 10 minutes)

About weather observations | Map of weather stations | Latest weather observations for VIC | Other Formats
Station Details ID: 088051 Name: REDESDALE Lat: -37.02 Lon: 144.52 Height: 290.0 m
Data from the previous 72 hours. | See also: Recent months at Redesdale
Date/Time
EST
Temp
°C
App
Temp
°C
Dew
Point
°C
Rel
Hum
%
Delta-T
°C
Wind Press
QNH
hPa
Press
MSL
hPa
Rain since
9am
mm
Dir  Spd
km/h
Gust
km/h
Spd
kts
Gust
kts
24/09:00am 6.0 3.9 4.0 87 0.9 ENE 4 6 2 3 - - 0.2
24/08:30am 2.1 -0.8 1.5 96 0.2 S 6 6 3 3 - - 0.2
24/08:00am 0.8 -1.5 0.4 97 0.1 ESE 2 4 1 2 - - 0.2
24/07:30am 0.9 -1.9 -0.1 93 0.4 ESE 4 6 2 3 - - 0.2
24/07:00am 1.1 -1.6 0.4 95 0.3 S 4 6 2 3 - - 0.2
24/06:30am 0.8 -1.9 0.1 95 0.3 SSE 4 6 2 3 - - 0.2
24/06:00am 1.1 -1.6 0.4 95 0.3 S 4 6 2 3 - - 0.2
24/05:30am 1.1 -2.0 0.4 95 0.3 S 6 6 3 3 - - 0.2
24/05:00am 1.4 -1.6 0.5 94 0.3 S 6 6 3 3 - - 0.2
24/04:30am 1.5 -1.2 0.5 93 0.4 S 4 6 2 3 - - 0.2
24/04:00am 1.4 -1.3 0.2 92 0.4 SSW 4 6 2 3 - - 0.2
24/03:30am 1.9 -0.7 0.7 92 0.5 S 4 4 2 2 - - 0.2
24/03:00am 1.1 -2.2 0.2 94 0.3 SSW 7 7 4 4 - - 0.2
24/02:30am 1.5 -1.3 -0.1 89 0.6 SSE 4 6 2 3 - - 0.2
24/02:00am 1.5 -1.2 0.6 94 0.3 SE 4 6 2 3 - - 0.2
24/01:30am 1.3 -1.0 0.3 93 0.4 SSE 2 4 1 2 - - 0.2
24/01:00am 2.0 -0.6 0.7 91 0.5 S 4 6 2 3 - - 0.2
24/12:30am 2.5 0.3 1.2 91 0.5 SE 2 4 1 2 - - 0.2
24/12:00am 2.1 -0.9 1.1 93 0.4 S 6 6 3 3 - - 0.2
 
Date/Time
EST
Temp
°C
App
Temp
°C
Dew
Point
°C
Rel
Hum
%
Delta-T
°C
Wind Press
QNH
hPa
Press
MSL
hPa
Rain since
9am
mm
Dir  Spd
km/h
Gust
km/h
Spd
kts
Gust
kts
23/11:30pm 2.7 0.1 1.1 89 0.6 SSE 4 6 2 3 - - 0.2
23/11:00pm 2.2 -0.4 0.7 90 0.6 SSW 4 4 2 2 - - 0.2
23/10:30pm 3.1 0.3 1.8 91 0.5 SW 6 7 3 4 - - 0.2
23/10:00pm 3.1 0.6 1.6 90 0.6 SW 4 4 2 2 - - 0.2
23/09:30pm 3.4 1.0 2.2 92 0.5 W 4 6 2 3 - - 0.2
23/09:00pm 3.4 1.3 1.8 89 0.6 NW 2 4 1 2 - - 0.2
23/08:30pm 5.0 3.4 2.4 83 1.1 CALM 0 0 0 0 - - 0.2
23/08:00pm 6.5 5.1 3.3 80 1.4 CALM 0 0 0 0 - - 0.2
23/07:30pm 6.6 4.7 3.0 78 1.5 N 2 4 1 2 - - 0.2
23/07:00pm 7.5 5.2 3.0 73 1.9 NNE 4 9 2 5 - - 0.2
23/06:30pm 9.3 7.1 3.5 67 2.6 NNE 4 6 2 3 - - 0.2
23/06:00pm 10.1 7.9 3.4 63 3.0 N 4 6 2 3 - - 0.2
23/05:30pm 11.5 8.7 3.3 57 3.7 N 7 13 4 7 - - 0.2
23/05:00pm 12.6 9.4 3.3 53 4.2 N 9 15 5 8 - - 0.2
23/04:30pm 14.0 10.0 2.6 46 5.1 NNW 13 24 7 13 - - 0.2
23/04:00pm 14.9 10.1 2.4 43 5.6 NNW 17 30 9 16 - - 0.2
23/03:30pm 15.4 11.0 5.0 50 5.0 N 17 24 9 13 - - 0.2
23/03:00pm 14.9 10.9 6.5 57 4.1 NNE 17 26 9 14 - - 0.2
23/02:30pm 15.7 12.2 7.0 56 4.4 N 15 22 8 12 - - 0.2
23/02:00pm 15.3 12.3 6.1 54 4.5 NNE 11 20 6 11 - - 0.0
23/01:30pm 14.9 11.9 6.2 56 4.3 NNE 11 19 6 10 - - 0.0
23/01:00pm 14.3 11.2 5.7 56 4.1 NNE 11 17 6 9 - - 0.0
23/12:30pm 13.7 11.1 6.1 60 3.7 NNE 9 13 5 7 - - 0.0
23/12:00pm 13.5 11.1 5.4 58 3.9 NNE 7 15 4 8 - - 0.0
23/11:30am 12.2 9.8 5.1 62 3.3 NNE 7 13 4 7 - - 0.0
23/11:00am 11.3 8.8 4.7 64 3.0 NNE 7 9 4 5 - - 0.0
23/10:30am 9.9 7.7 5.1 72 2.2 NNE 6 9 3 5 - - 0.0
23/10:00am 8.5 6.1 4.3 75 1.9 NNE 6 7 3 4 - - 0.0
23/09:30am 7.9 5.9 4.3 78 1.6 NE 4 7 2 4 - - 0.0
23/09:00am 4.8 3.6 4.5 98 0.1 CALM 0 0 0 0 - - -
23/08:30am 3.8 2.4 3.7 99 0.0 CALM 0 2 0 1 - - -
23/08:00am 2.4 0.4 2.3 99 0.0 SSE 2 4 1 2 - - -
23/07:30am 2.2 0.2 2.1 99 0.0 ESE 2 4 1 2 - - 0.0
23/07:00am 2.0 -0.5 1.7 98 0.1 SSW 4 6 2 3 - - 0.0
23/06:30am 3.0 1.1 2.9 99 0.0 SW 2 6 1 3 - - 0.0
23/06:00am 2.9 1.3 2.3 96 0.2 CALM 0 4 0 2 - - 0.0
23/05:30am 3.9 2.1 3.5 97 0.2 N 2 2 1 1 - - 0.0
23/05:00am 5.2 4.0 4.6 96 0.3 CALM 0 0 0 0 - - 0.0
23/04:30am 5.8 4.3 4.8 93 0.4 NNE 2 4 1 2 - - 0.0
23/04:00am 6.7 4.6 5.7 93 0.5 N 6 6 3 3 - - 0.0
23/03:30am 6.8 5.1 6.1 95 0.3 N 4 6 2 3 - - 0.0
23/03:00am 7.5 5.8 6.1 91 0.6 NNE 4 4 2 2 - - 0.0
23/02:30am 8.1 6.6 6.9 92 0.6 NNE 4 6 2 3 - - 0.0
23/02:00am 8.6 7.2 7.1 90 0.7 NNE 4 6 2 3 - - 0.0
23/01:30am 9.5 8.2 7.6 88 0.9 N 4 6 2 3 - - 0.0
23/01:00am 10.0 8.8 7.9 87 1.0 NNE 4 6 2 3 - - 0.0
23/12:30am 10.1 9.0 8.4 89 0.8 NNE 4 4 2 2 - - 0.0
23/12:00am 10.4 9.3 8.5 88 0.9 N 4 6 2 3 - - 0.0
 
Date/Time
EST
Temp
°C
App
Temp
°C
Dew
Point
°C
Rel
Hum
%
Delta-T
°C
Wind Press
QNH
hPa
Press
MSL
hPa
Rain since
9am
mm
Dir  Spd
km/h
Gust
km/h
Spd
kts
Gust
kts
22/11:30pm 10.4 9.4 9.0 91 0.7 N 4 6 2 3 - - 0.0
22/11:00pm 10.5 9.6 9.1 91 0.7 N 4 6 2 3 - - 0.0
22/10:30pm 10.7 10.2 9.3 91 0.7 N 2 4 1 2 - - 0.0
22/10:00pm 10.9 10.7 9.2 89 0.9 CALM 0 0 0 0 - - 0.0
22/09:30pm 11.1 10.6 9.4 89 0.9 N 2 6 1 3 - - 0.0
22/09:00pm 11.1 10.6 9.4 89 0.9 NNE 2 4 1 2 - - 0.0
22/08:30pm 11.3 10.4 9.4 88 1.0 NNE 4 6 2 3 - - 0.0
22/08:00pm 11.5 11.0 9.4 87 1.1 N 2 4 1 2 - - 0.0
22/07:30pm 11.5 10.7 9.6 88 1.0 NNE 4 6 2 3 - - 0.0
22/07:00pm 11.3 10.4 9.4 88 1.0 NNE 4 6 2 3 - - 0.0
22/06:30pm 11.8 10.6 9.7 87 1.1 N 6 7 3 4 - - 0.0
22/06:00pm 11.9 10.7 9.6 86 1.2 NNE 6 7 3 4 - - 0.0
22/05:30pm 12.6 10.9 9.8 83 1.5 N 9 15 5 8 - - 0.0
22/05:00pm 13.0 11.3 10.0 82 1.6 N 9 13 5 7 - - 0.0
22/04:30pm 12.7 11.4 10.1 84 1.4 N 7 13 4 7 - - 0.0
22/04:00pm 13.0 11.9 10.0 82 1.6 NNE 6 9 3 5 - - 0.0
22/03:30pm 13.5 11.9 10.3 81 1.7 N 9 13 5 7 - - 0.0
22/03:00pm 14.0 12.5 10.6 80 1.8 N 9 15 5 8 - - 0.0
22/02:30pm 13.4 11.4 10.2 81 1.7 N 11 19 6 10 - - 0.0
22/02:00pm 13.2 11.5 10.0 81 1.7 NNE 9 15 5 8 - - 0.0
22/01:30pm 13.7 11.2 9.6 76 2.1 N 13 20 7 11 - - 0.0
22/01:00pm 13.2 10.7 9.6 79 1.9 NNW 13 19 7 10 - - 0.0
22/12:30pm 12.2 10.1 9.6 84 1.3 NNW 11 19 6 10 - - 0.0
22/12:00pm 11.7 9.9 9.3 85 1.2 NNW 9 13 5 7 - - 0.0
22/11:30am 11.5 9.7 9.4 87 1.1 NW 9 17 5 9 - - 0.0
22/11:00am 10.8 9.4 9.4 91 0.7 N 7 13 4 7 - - 0.0
22/10:30am 11.4 9.7 9.7 89 0.9 N 9 15 5 8 - - 0.0
22/10:00am 10.7 9.2 10.4 98 0.2 N 9 13 5 7 - - 0.0
22/09:30am 9.1 7.8 9.1 100 0.0 NNE 6 7 3 4 - - 0.0
22/09:00am 9.0 8.0 8.9 99 0.0 N 4 6 2 3 - - 0.2
22/08:30am 9.1 7.7 9.0 99 0.0 NNW 6 9 3 5 - - 0.2
22/08:00am 8.7 7.1 8.6 99 0.0 NW 7 9 4 5 - - 0.2
22/07:30am 8.7 7.1 8.7 100 0.0 NNW 7 11 4 6 - - 0.2
22/07:00am 8.3 6.6 8.3 100 0.0 NNW 7 11 4 6 - - 0.2
22/06:30am 8.3 6.6 8.3 100 0.0 NNW 7 9 4 5 - - 0.2
22/06:00am 8.0 6.4 8.0 100 0.0 N 6 7 3 4 - - 0.2
22/05:30am 7.9 6.3 7.9 100 0.0 N 6 7 3 4 - - 0.2
22/05:00am 8.0 6.8 8.0 100 0.0 NNE 4 6 2 3 - - 0.2
22/04:30am 7.9 6.7 7.9 100 0.0 NNE 4 4 2 2 - - 0.2
22/04:00am 7.8 6.5 7.8 100 0.0 NNE 4 6 2 3 - - 0.2
22/03:30am 7.9 6.7 7.9 100 0.0 N 4 4 2 2 - - 0.2
22/03:00am 7.9 7.0 7.9 100 0.0 N 2 2 1 1 - - 0.2
22/02:30am 7.9 6.7 7.9 100 0.0 N 4 6 2 3 - - 0.2
22/02:00am 7.9 7.0 7.9 100 0.0 NNE 2 4 1 2 - - 0.2
22/01:30am 7.9 6.3 7.9 100 0.0 N 6 7 3 4 - - 0.2
22/01:00am 8.1 6.5 8.1 100 0.0 N 6 7 3 4 - - 0.2
22/12:30am 8.8 8.2 8.8 100 0.0 NNE 2 4 1 2 - - 0.2
22/12:00am 9.1 8.9 9.1 100 0.0 CALM 0 0 0 0 - - 0.2
 
Date/Time
EST
Temp
°C
App
Temp
°C
Dew
Point
°C
Rel
Hum
%
Delta-T
°C
Wind Press
QNH
hPa
Press
MSL
hPa
Rain since
9am
mm
Dir  Spd
km/h
Gust
km/h
Spd
kts
Gust
kts
21/11:30pm 9.1 8.2 9.1 100 0.0 N 4 6 2 3 - - 0.2
21/11:00pm 9.2 7.9 9.2 100 0.0 NNW 6 9 3 5 - - 0.2
21/10:30pm 9.3 8.4 9.3 100 0.0 NNW 4 6 2 3 - - 0.0
21/10:00pm 9.4 8.5 9.4 100 0.0 N 4 6 2 3 - - 0.0
21/09:30pm 9.5 7.7 9.5 100 0.0 N 9 13 5 7 - - 0.0
21/09:00pm 9.3 7.8 9.3 100 0.0 N 7 11 4 6 - - 0.0
21/08:30pm 9.2 8.3 9.1 99 0.0 N 4 6 2 3 - - 0.0
21/08:00pm 9.0 8.4 8.9 99 0.0 N 2 4 1 2 - - 0.0
21/07:30pm 8.8 7.8 8.7 99 0.0 N 4 4 2 2 - - 0.0
21/07:00pm 8.5 7.7 8.2 98 0.1 N 2 4 1 2 - - 0.0
21/06:30pm 8.8 7.7 8.4 97 0.2 N 4 6 2 3 - - 0.0
21/06:00pm 8.9 7.4 8.5 97 0.2 N 6 9 3 5 - - 0.0
21/05:30pm 9.5 8.1 8.9 96 0.3 N 6 7 3 4 - - 0.0
21/05:00pm 9.6 8.1 9.3 98 0.2 N 7 9 4 5 - - 0.0
21/04:30pm 9.5 8.0 9.2 98 0.2 N 7 9 4 5 - - 0.0
21/04:00pm 9.4 7.5 9.1 98 0.2 N 9 13 5 7 - - 0.0
21/03:30pm 9.3 7.3 8.8 97 0.2 NNE 9 15 5 8 - - 0.0
21/03:00pm 9.3 7.3 8.8 97 0.2 N 9 13 5 7 - - 0.0
21/02:30pm 8.6 7.1 8.5 99 0.0 NNE 6 9 3 5 - - 0.0
21/02:00pm 8.4 6.9 8.3 99 0.0 NNE 6 9 3 5 - - 0.0
21/01:30pm 8.6 7.0 8.2 97 0.2 NNE 6 7 3 4 - - 0.0
21/01:00pm 8.5 6.8 8.4 99 0.0 N 7 11 4 6 - - 0.0
21/12:30pm 7.5 5.6 7.4 99 0.0 N 7 11 4 6 - - 0.0
21/12:00pm 7.4 5.6 7.1 98 0.1 N 6 11 3 6 - - 0.0
21/11:30am 7.3 5.3 6.2 93 0.5 NNE 6 9 3 5 - - 0.0
21/11:00am 6.9 4.8 5.7 92 0.5 NNE 6 7 3 4 - - 0.0
21/10:30am 7.0 5.2 5.3 89 0.8 NNE 4 7 2 4 - - 0.0
21/10:00am 6.4 4.6 5.5 94 0.4 NE 4 6 2 3 - - 0.0
21/09:30am 4.7 2.7 4.4 98 0.1 NE 4 6 2 3 - - 0.0

Other formats

Comma delimited format used in spreadsheet applications
http://www.bom.gov.au/fwo/IDV60801/IDV60801.94859.axf

JavaScript Object Notation format (JSON) in row-major order
http://www.bom.gov.au/fwo/IDV60801/IDV60801.94859.json

Data quality

Most of these data are generated automatically and are frequently updated. Quality checks on data are not normally performed. It is possible for incorrect values to appear. Refer to information at About Latest Weather Observations and please check the disclaimer before using these data.